sensor_id;sensor_type;location;lat;lon;timestamp;P1;durP1;ratioP1;P2;durP2;ratioP2
4821;SDS011;2425;47.794;13.068;2024-02-28T10:28:50;4.17;;;2.73;;
4821;SDS011;2425;47.794;13.068;2024-02-28T10:31:17;3.77;;;2.47;;
4821;SDS011;2425;47.794;13.068;2024-02-28T10:33:45;2.57;;;2.47;;
4821;SDS011;2425;47.794;13.068;2024-02-28T10:36:11;5.83;;;3.00;;
4821;SDS011;2425;47.794;13.068;2024-02-28T10:38:38;2.80;;;2.60;;
4821;SDS011;2425;47.794;13.068;2024-02-28T10:41:05;2.87;;;2.60;;
4821;SDS011;2425;47.794;13.068;2024-02-28T10:43:32;3.10;;;2.90;;
4821;SDS011;2425;47.794;13.068;2024-02-28T10:46:01;2.40;;;2.30;;
4821;SDS011;2425;47.794;13.068;2024-02-28T10:48:28;2.20;;;2.00;;
4821;SDS011;2425;47.794;13.068;2024-02-28T10:50:55;2.70;;;2.50;;
4821;SDS011;2425;47.794;13.068;2024-02-28T10:53:22;3.13;;;2.10;;
4821;SDS011;2425;47.794;13.068;2024-02-28T10:55:57;6.77;;;2.00;;
4821;SDS011;2425;47.794;13.068;2024-02-28T10:58:29;2.33;;;2.23;;
4821;SDS011;2425;47.794;13.068;2024-02-28T11:01:03;4.20;;;2.20;;
4821;SDS011;2425;47.794;13.068;2024-02-28T11:03:30;2.40;;;2.30;;
4821;SDS011;2425;47.794;13.068;2024-02-28T11:05:56;2.10;;;2.00;;
4821;SDS011;2425;47.794;13.068;2024-02-28T11:08:24;2.20;;;2.10;;
4821;SDS011;2425;47.794;13.068;2024-02-28T11:10:54;2.20;;;2.10;;
4821;SDS011;2425;47.794;13.068;2024-02-28T11:13:22;3.40;;;2.50;;
4821;SDS011;2425;47.794;13.068;2024-02-28T11:15:49;1.83;;;1.83;;
4821;SDS011;2425;47.794;13.068;2024-02-28T11:18:17;2.13;;;2.00;;
4821;SDS011;2425;47.794;13.068;2024-02-28T11:20:44;2.03;;;1.83;;
4821;SDS011;2425;47.794;13.068;2024-02-28T11:23:14;2.27;;;2.17;;
4821;SDS011;2425;47.794;13.068;2024-02-28T11:25:40;1.67;;;1.67;;
4821;SDS011;2425;47.794;13.068;2024-02-28T11:28:08;1.93;;;1.83;;
4821;SDS011;2425;47.794;13.068;2024-02-28T11:30:34;2.07;;;1.93;;
4821;SDS011;2425;47.794;13.068;2024-02-28T11:33:02;3.23;;;3.03;;
4821;SDS011;2425;47.794;13.068;2024-02-28T11:35:31;3.50;;;3.20;;
4821;SDS011;2425;47.794;13.068;2024-02-28T11:37:57;2.97;;;2.83;;
4821;SDS011;2425;47.794;13.068;2024-02-28T11:40:24;3.60;;;3.37;;
4821;SDS011;2425;47.794;13.068;2024-02-28T11:42:51;6.10;;;3.43;;
4821;SDS011;2425;47.794;13.068;2024-02-28T11:45:18;2.73;;;2.57;;
4821;SDS011;2425;47.794;13.068;2024-02-28T11:47:45;3.10;;;2.90;;
4821;SDS011;2425;47.794;13.068;2024-02-28T11:50:12;3.40;;;3.10;;
4821;SDS011;2425;47.794;13.068;2024-02-28T11:52:42;6.90;;;2.87;;
4821;SDS011;2425;47.794;13.068;2024-02-28T11:55:09;2.60;;;2.50;;
4821;SDS011;2425;47.794;13.068;2024-02-28T11:57:36;2.80;;;2.60;;
4821;SDS011;2425;47.794;13.068;2024-02-28T12:00:04;3.80;;;3.17;;
4821;SDS011;2425;47.794;13.068;2024-02-28T12:02:32;2.63;;;2.43;;
4821;SDS011;2425;47.794;13.068;2024-02-28T12:05:02;3.20;;;3.00;;
4821;SDS011;2425;47.794;13.068;2024-02-28T12:07:30;3.30;;;3.10;;
4821;SDS011;2425;47.794;13.068;2024-02-28T12:09:59;2.57;;;2.47;;
4821;SDS011;2425;47.794;13.068;2024-02-28T12:12:27;2.63;;;2.53;;
4821;SDS011;2425;47.794;13.068;2024-02-28T12:14:57;2.40;;;2.30;;
4821;SDS011;2425;47.794;13.068;2024-02-28T12:17:24;2.70;;;2.50;;
4821;SDS011;2425;47.794;13.068;2024-02-28T12:19:51;3.43;;;3.03;;
4821;SDS011;2425;47.794;13.068;2024-02-28T12:22:18;2.20;;;2.10;;
4821;SDS011;2425;47.794;13.068;2024-02-28T12:24:45;4.10;;;2.83;;
4821;SDS011;2425;47.794;13.068;2024-02-28T12:27:13;3.00;;;2.80;;
4821;SDS011;2425;47.794;13.068;2024-02-28T12:29:39;3.00;;;2.80;;
4821;SDS011;2425;47.794;13.068;2024-02-28T12:32:07;3.47;;;3.17;;
4821;SDS011;2425;47.794;13.068;2024-02-28T15:50:03;23.43;;;13.53;;
4821;SDS011;2425;47.794;13.068;2024-02-28T15:52:30;15.47;;;11.83;;
4821;SDS011;2425;47.794;13.068;2024-02-28T15:54:57;16.47;;;11.40;;
4821;SDS011;2425;47.794;13.068;2024-02-28T15:57:24;16.63;;;12.17;;
4821;SDS011;2425;47.794;13.068;2024-02-28T15:59:51;13.20;;;10.53;;
4821;SDS011;2425;47.794;13.068;2024-02-28T16:02:17;14.30;;;10.50;;
4821;SDS011;2425;47.794;13.068;2024-02-28T16:04:44;15.77;;;9.83;;
4821;SDS011;2425;47.794;13.068;2024-02-28T16:07:12;14.27;;;10.17;;
4821;SDS011;2425;47.794;13.068;2024-02-28T16:09:40;12.20;;;9.60;;
4821;SDS011;2425;47.794;13.068;2024-02-28T16:12:08;11.80;;;8.97;;
4821;SDS011;2425;47.794;13.068;2024-02-28T16:14:35;13.07;;;9.67;;
4821;SDS011;2425;47.794;13.068;2024-02-28T16:17:01;14.53;;;8.97;;
4821;SDS011;2425;47.794;13.068;2024-02-28T16:19:28;11.57;;;8.73;;
4821;SDS011;2425;47.794;13.068;2024-02-28T16:21:55;14.00;;;8.83;;
4821;SDS011;2425;47.794;13.068;2024-02-28T16:24:23;10.83;;;8.97;;
4821;SDS011;2425;47.794;13.068;2024-02-28T16:26:50;10.70;;;8.70;;
4821;SDS011;2425;47.794;13.068;2024-02-28T16:29:17;9.00;;;8.00;;
4821;SDS011;2425;47.794;13.068;2024-02-28T16:31:44;12.20;;;8.77;;
4821;SDS011;2425;47.794;13.068;2024-02-28T16:34:13;10.80;;;7.90;;
4821;SDS011;2425;47.794;13.068;2024-02-28T16:36:40;9.13;;;7.60;;
4821;SDS011;2425;47.794;13.068;2024-02-28T16:39:07;8.60;;;7.40;;
4821;SDS011;2425;47.794;13.068;2024-02-28T16:41:35;8.23;;;7.43;;
4821;SDS011;2425;47.794;13.068;2024-02-28T16:44:02;8.50;;;7.60;;
4821;SDS011;2425;47.794;13.068;2024-02-28T16:46:29;8.10;;;7.30;;
4821;SDS011;2425;47.794;13.068;2024-02-28T16:48:56;9.93;;;7.23;;
4821;SDS011;2425;47.794;13.068;2024-02-28T16:51:23;7.70;;;6.63;;
4821;SDS011;2425;47.794;13.068;2024-02-28T16:53:50;8.27;;;7.40;;
4821;SDS011;2425;47.794;13.068;2024-02-28T16:57:12;8.77;;;7.87;;
4821;SDS011;2425;47.794;13.068;2024-02-28T16:59:39;8.07;;;7.00;;
4821;SDS011;2425;47.794;13.068;2024-02-28T17:02:06;9.27;;;6.80;;
4821;SDS011;2425;47.794;13.068;2024-02-28T17:04:33;8.97;;;6.93;;
4821;SDS011;2425;47.794;13.068;2024-02-28T17:07:03;7.20;;;6.50;;
4821;SDS011;2425;47.794;13.068;2024-02-28T17:09:30;9.53;;;7.30;;
4821;SDS011;2425;47.794;13.068;2024-02-28T17:11:57;8.17;;;6.63;;
4821;SDS011;2425;47.794;13.068;2024-02-28T17:14:25;7.07;;;6.30;;
4821;SDS011;2425;47.794;13.068;2024-02-28T17:16:51;8.00;;;7.20;;
4821;SDS011;2425;47.794;13.068;2024-02-28T17:19:18;7.00;;;6.30;;
4821;SDS011;2425;47.794;13.068;2024-02-28T17:21:45;7.23;;;6.50;;
4821;SDS011;2425;47.794;13.068;2024-02-28T17:24:12;8.30;;;6.17;;
4821;SDS011;2425;47.794;13.068;2024-02-28T17:26:39;8.27;;;6.37;;
4821;SDS011;2425;47.794;13.068;2024-02-28T17:29:05;8.13;;;6.60;;
4821;SDS011;2425;47.794;13.068;2024-02-28T17:31:34;6.33;;;5.70;;
4821;SDS011;2425;47.794;13.068;2024-02-28T17:34:01;6.77;;;6.13;;
4821;SDS011;2425;47.794;13.068;2024-02-28T17:36:27;7.10;;;6.50;;
4821;SDS011;2425;47.794;13.068;2024-02-28T17:38:55;6.43;;;5.93;;
4821;SDS011;2425;47.794;13.068;2024-02-28T17:41:22;8.00;;;6.07;;
4821;SDS011;2425;47.794;13.068;2024-02-28T17:43:49;6.77;;;6.07;;
4821;SDS011;2425;47.794;13.068;2024-02-28T17:46:16;7.80;;;6.17;;
4821;SDS011;2425;47.794;13.068;2024-02-28T17:48:44;5.93;;;5.43;;
4821;SDS011;2425;47.794;13.068;2024-02-28T17:51:10;6.77;;;6.17;;
4821;SDS011;2425;47.794;13.068;2024-02-28T17:53:37;6.37;;;5.77;;
4821;SDS011;2425;47.794;13.068;2024-02-28T17:56:04;6.60;;;6.00;;
4821;SDS011;2425;47.794;13.068;2024-02-28T17:58:32;5.83;;;5.33;;
4821;SDS011;2425;47.794;13.068;2024-02-28T18:00:58;6.43;;;5.83;;
4821;SDS011;2425;47.794;13.068;2024-02-28T18:03:27;6.47;;;5.87;;
4821;SDS011;2425;47.794;13.068;2024-02-28T20:10:39;5.77;;;5.27;;
4821;SDS011;2425;47.794;13.068;2024-02-28T20:13:06;5.50;;;5.00;;
4821;SDS011;2425;47.794;13.068;2024-02-28T20:15:32;7.27;;;6.57;;
4821;SDS011;2425;47.794;13.068;2024-02-28T20:17:59;5.30;;;4.80;;
4821;SDS011;2425;47.794;13.068;2024-02-28T20:20:29;5.23;;;4.80;;
4821;SDS011;2425;47.794;13.068;2024-02-28T20:22:56;5.03;;;4.73;;
4821;SDS011;2425;47.794;13.068;2024-02-28T20:25:23;5.30;;;4.80;;
4821;SDS011;2425;47.794;13.068;2024-02-28T20:27:51;6.10;;;5.40;;
4821;SDS011;2425;47.794;13.068;2024-02-28T20:30:18;4.70;;;4.30;;
4821;SDS011;2425;47.794;13.068;2024-02-28T20:32:45;5.37;;;4.97;;
4821;SDS011;2425;47.794;13.068;2024-02-28T20:35:12;8.57;;;5.20;;
4821;SDS011;2425;47.794;13.068;2024-02-28T20:37:38;4.77;;;4.33;;
4821;SDS011;2425;47.794;13.068;2024-02-28T20:40:05;5.43;;;4.50;;
4821;SDS011;2425;47.794;13.068;2024-02-28T20:42:37;4.97;;;4.57;;
4821;SDS011;2425;47.794;13.068;2024-02-28T20:45:07;5.50;;;5.10;;
4821;SDS011;2425;47.794;13.068;2024-02-28T20:47:34;5.30;;;4.80;;
4821;SDS011;2425;47.794;13.068;2024-02-28T20:50:01;4.27;;;3.97;;
4821;SDS011;2425;47.794;13.068;2024-02-28T20:52:29;4.27;;;3.97;;
4821;SDS011;2425;47.794;13.068;2024-02-28T20:54:56;5.03;;;4.63;;
4821;SDS011;2425;47.794;13.068;2024-02-28T20:57:24;4.83;;;4.33;;
4821;SDS011;2425;47.794;13.068;2024-02-28T20:59:51;4.90;;;4.50;;
4821;SDS011;2425;47.794;13.068;2024-02-28T21:02:19;4.60;;;4.20;;
4821;SDS011;2425;47.794;13.068;2024-02-28T21:04:46;7.90;;;7.20;;
4821;SDS011;2425;47.794;13.068;2024-02-28T21:07:13;8.80;;;7.97;;
4821;SDS011;2425;47.794;13.068;2024-02-28T21:09:40;8.43;;;7.57;;
4821;SDS011;2425;47.794;13.068;2024-02-28T21:12:07;9.00;;;7.80;;
4821;SDS011;2425;47.794;13.068;2024-02-28T21:14:37;7.80;;;7.00;;
4821;SDS011;2425;47.794;13.068;2024-02-28T21:17:04;7.73;;;6.47;;
